createdAt,value
2018-01-23T00:00:31.474Z,0.00
2018-01-23T00:01:31.462Z,0.00
2018-01-23T00:02:31.447Z,0.00
2018-01-23T00:03:31.432Z,0.00
2018-01-23T00:04:31.420Z,0.00
2018-01-23T00:05:31.405Z,0.00
2018-01-23T00:06:31.391Z,0.00
2018-01-23T00:07:31.378Z,0.00
2018-01-23T00:08:31.364Z,0.00
2018-01-23T00:09:31.346Z,0.00
2018-01-23T00:10:31.335Z,0.00
2018-01-23T00:11:31.319Z,0.00
2018-01-23T00:12:31.300Z,0.00
2018-01-23T00:13:31.290Z,0.00
2018-01-23T00:14:31.277Z,0.00
2018-01-23T00:15:31.259Z,0.00
2018-01-23T00:16:31.248Z,0.00
2018-01-23T00:17:31.228Z,0.00
2018-01-23T00:18:31.214Z,0.00
2018-01-23T00:19:31.200Z,0.00
2018-01-23T00:20:31.189Z,0.00
2018-01-23T00:21:31.174Z,0.00
2018-01-23T00:22:31.160Z,0.00
2018-01-23T00:23:31.145Z,0.00
2018-01-23T00:24:31.129Z,0.00
2018-01-23T00:25:31.117Z,0.00
2018-01-23T00:26:31.101Z,0.00
2018-01-23T00:27:31.084Z,0.00
2018-01-23T00:28:31.071Z,0.00
2018-01-23T00:29:31.057Z,0.00
2018-01-23T00:30:31.046Z,0.00
2018-01-23T00:31:31.028Z,0.00
2018-01-23T00:32:31.015Z,0.00
2018-01-23T00:33:30.999Z,0.00
2018-01-23T00:34:30.986Z,0.00
2018-01-23T00:35:30.972Z,0.00
2018-01-23T00:36:30.956Z,0.00
2018-01-23T00:37:30.938Z,0.00
2018-01-23T00:38:30.930Z,0.00
2018-01-23T00:39:30.914Z,0.00
2018-01-23T00:40:30.894Z,0.00
2018-01-23T00:41:30.881Z,0.00
2018-01-23T00:42:30.873Z,0.00
2018-01-23T00:43:30.855Z,0.00
2018-01-23T00:44:30.840Z,0.00
2018-01-23T00:45:30.828Z,0.00
2018-01-23T00:46:30.811Z,0.00
2018-01-23T00:47:30.795Z,0.00
2018-01-23T00:48:30.782Z,0.00
2018-01-23T00:49:30.770Z,0.00
2018-01-23T00:50:30.753Z,0.00
2018-01-23T00:51:30.739Z,0.00
2018-01-23T00:52:30.722Z,0.00
2018-01-23T00:53:30.713Z,0.00
2018-01-23T00:54:30.694Z,0.00
2018-01-23T00:55:30.681Z,0.00
2018-01-23T00:56:30.663Z,0.00
2018-01-23T00:57:30.651Z,0.00
2018-01-23T00:58:30.638Z,0.00
2018-01-23T00:59:30.622Z,0.00
2018-01-23T01:00:30.603Z,0.00
2018-01-23T01:01:30.592Z,0.00
2018-01-23T01:02:30.580Z,0.00
2018-01-23T01:03:30.564Z,0.00
2018-01-23T01:04:30.554Z,0.00
2018-01-23T01:05:30.537Z,0.00
2018-01-23T01:06:30.522Z,0.00
2018-01-23T01:07:30.506Z,0.00
2018-01-23T01:08:30.492Z,0.00
2018-01-23T01:09:30.479Z,0.00
2018-01-23T01:10:30.459Z,0.00
2018-01-23T01:11:30.452Z,0.00
2018-01-23T01:12:30.435Z,0.00
2018-01-23T01:13:30.418Z,0.00
2018-01-23T01:14:30.404Z,0.00
2018-01-23T01:15:30.391Z,0.00
2018-01-23T01:16:30.374Z,0.00
2018-01-23T01:17:30.362Z,0.00
2018-01-23T01:18:30.347Z,0.00
2018-01-23T01:19:30.331Z,0.00
2018-01-23T01:20:30.326Z,0.00
2018-01-23T01:21:30.303Z,0.00
2018-01-23T01:22:30.293Z,0.00
2018-01-23T01:23:30.279Z,0.00
2018-01-23T01:24:30.260Z,0.00
2018-01-23T01:25:30.246Z,0.00
2018-01-23T01:26:30.231Z,0.00
2018-01-23T01:27:30.217Z,0.00
2018-01-23T01:28:30.200Z,0.00
2018-01-23T01:29:30.188Z,0.00
2018-01-23T01:30:30.175Z,0.00
2018-01-23T01:31:30.159Z,0.00
2018-01-23T01:32:30.145Z,0.00
2018-01-23T01:33:30.130Z,0.00
2018-01-23T01:34:30.112Z,0.00
2018-01-23T01:35:30.104Z,0.00
2018-01-23T01:36:30.093Z,0.00
2018-01-23T01:37:30.075Z,0.00
2018-01-23T01:38:30.054Z,0.00
2018-01-23T01:39:30.044Z,0.00
2018-01-23T01:40:30.027Z,0.00
2018-01-23T01:41:30.013Z,0.00
2018-01-23T01:42:30.000Z,0.00
2018-01-23T01:43:29.984Z,0.00
2018-01-23T01:44:29.971Z,0.00
2018-01-23T01:45:29.957Z,0.00
2018-01-23T01:46:29.943Z,0.00
2018-01-23T01:47:29.928Z,0.00
2018-01-23T01:48:29.910Z,0.00
2018-01-23T01:49:29.893Z,0.00
2018-01-23T01:50:29.885Z,0.00
2018-01-23T01:51:29.868Z,0.00
2018-01-23T01:52:29.854Z,0.00
2018-01-23T01:53:29.837Z,0.00
2018-01-23T01:54:29.825Z,0.00
2018-01-23T01:55:29.808Z,0.00
2018-01-23T01:56:29.794Z,0.00
2018-01-23T01:57:29.778Z,0.00
2018-01-23T01:58:29.768Z,0.00
2018-01-23T01:59:29.757Z,0.00
2018-01-23T02:00:29.736Z,0.00
2018-01-23T02:01:29.726Z,0.00
2018-01-23T02:02:29.708Z,0.00
2018-01-23T02:03:29.695Z,0.00
2018-01-23T02:04:29.680Z,0.00
2018-01-23T02:05:29.664Z,0.00
2018-01-23T02:06:29.650Z,0.00
2018-01-23T02:07:29.638Z,0.00
2018-01-23T02:08:29.623Z,0.00
2018-01-23T02:09:29.608Z,0.00
2018-01-23T02:10:29.593Z,0.00
2018-01-23T02:11:29.580Z,0.00
2018-01-23T02:12:29.563Z,0.00
2018-01-23T02:13:29.552Z,0.00
2018-01-23T02:14:29.536Z,0.00
2018-01-23T02:15:29.518Z,0.00
2018-01-23T02:16:29.505Z,0.00
2018-01-23T02:17:29.486Z,0.00
2018-01-23T02:18:29.478Z,0.00
2018-01-23T02:19:29.466Z,0.00
2018-01-23T02:20:29.448Z,0.00
2018-01-23T02:21:29.431Z,0.00
2018-01-23T02:22:29.422Z,0.00
2018-01-23T02:23:29.406Z,0.00
2018-01-23T02:24:29.388Z,0.00
2018-01-23T02:25:29.377Z,0.00
2018-01-23T02:26:29.365Z,0.00
2018-01-23T02:27:29.348Z,0.00
2018-01-23T02:28:29.330Z,0.00
2018-01-23T02:29:29.321Z,0.00
2018-01-23T02:30:29.303Z,0.00
2018-01-23T02:31:29.288Z,0.00
2018-01-23T02:32:29.276Z,0.00
2018-01-23T02:33:29.264Z,0.00
2018-01-23T02:34:29.247Z,0.00
2018-01-23T02:35:29.232Z,0.00
2018-01-23T02:36:29.218Z,0.00
2018-01-23T02:37:29.202Z,0.00
2018-01-23T02:38:29.189Z,0.00
2018-01-23T02:39:29.173Z,0.00
2018-01-23T02:40:29.162Z,0.00
2018-01-23T02:41:36.002Z,0.00
2018-01-23T02:42:29.131Z,0.00
2018-01-23T02:43:29.126Z,0.00
2018-01-23T02:44:29.097Z,0.00
2018-01-23T02:45:29.087Z,0.00
2018-01-23T02:46:29.072Z,0.00
2018-01-23T02:47:29.059Z,0.00
2018-01-23T02:48:29.043Z,0.00
2018-01-23T02:49:29.030Z,0.00
2018-01-23T02:50:29.010Z,0.00
2018-01-23T02:51:29.003Z,0.00
2018-01-23T02:52:28.987Z,0.00
2018-01-23T02:53:28.971Z,0.00
2018-01-23T02:54:28.954Z,0.00
2018-01-23T02:55:28.944Z,0.00
2018-01-23T02:56:28.929Z,0.00
2018-01-23T02:57:28.913Z,0.00
2018-01-23T02:58:28.898Z,0.00
2018-01-23T02:59:28.884Z,0.00
2018-01-23T03:00:28.870Z,0.00
2018-01-23T03:01:28.856Z,0.00
2018-01-23T03:02:28.848Z,0.00
2018-01-23T03:03:28.824Z,0.00
2018-01-23T03:04:28.812Z,0.00
2018-01-23T03:05:28.796Z,0.00
2018-01-23T03:06:28.785Z,0.00
2018-01-23T03:07:28.770Z,0.00
2018-01-23T03:08:28.750Z,0.00
2018-01-23T03:09:28.738Z,0.00
2018-01-23T03:10:28.725Z,0.00
2018-01-23T03:11:28.711Z,0.00
2018-01-23T03:12:28.696Z,0.00
2018-01-23T03:13:28.680Z,0.00
2018-01-23T03:14:28.697Z,0.00
2018-01-23T03:15:28.658Z,0.00
2018-01-23T03:16:28.637Z,0.00
2018-01-23T03:17:28.626Z,0.00
2018-01-23T03:18:28.612Z,0.00
2018-01-23T03:19:28.607Z,0.00
2018-01-23T03:20:28.586Z,0.00
2018-01-23T03:21:28.591Z,0.00
2018-01-23T03:22:28.555Z,0.00
2018-01-23T03:23:28.541Z,0.00
2018-01-23T03:24:28.525Z,0.00
2018-01-23T03:25:28.512Z,0.00
2018-01-23T03:26:28.496Z,0.00
2018-01-23T03:27:28.484Z,0.00
2018-01-23T03:28:28.467Z,0.00
2018-01-23T03:29:28.454Z,0.00
2018-01-23T03:30:28.443Z,0.00
2018-01-23T03:31:28.425Z,0.00
2018-01-23T03:32:28.407Z,0.00
2018-01-23T03:33:28.396Z,0.00
2018-01-23T03:34:28.382Z,0.00
2018-01-23T03:35:28.371Z,0.00
2018-01-23T03:36:28.353Z,0.00
2018-01-23T03:37:28.335Z,0.00
2018-01-23T03:38:28.324Z,0.00
2018-01-23T03:39:28.310Z,0.00
2018-01-23T03:40:28.291Z,0.00
2018-01-23T03:41:28.285Z,0.00
2018-01-23T03:42:28.266Z,0.00
2018-01-23T03:43:28.254Z,0.00
2018-01-23T03:44:28.237Z,0.00
2018-01-23T03:45:28.223Z,0.00
2018-01-23T03:46:28.209Z,0.00
2018-01-23T03:47:28.194Z,0.00
2018-01-23T03:48:28.180Z,0.00
2018-01-23T03:49:28.165Z,0.00
2018-01-23T03:50:28.151Z,0.00
2018-01-23T03:51:28.144Z,0.00
2018-01-23T03:52:28.118Z,0.00
2018-01-23T03:53:28.111Z,0.00
2018-01-23T03:54:28.093Z,0.00
2018-01-23T03:55:28.081Z,0.00
2018-01-23T03:56:28.064Z,0.00
2018-01-23T03:57:28.052Z,0.00
2018-01-23T03:58:28.037Z,0.00
2018-01-23T03:59:28.025Z,0.00
2018-01-23T04:00:28.008Z,0.00
2018-01-23T04:01:27.997Z,0.00
2018-01-23T04:02:27.977Z,0.00
2018-01-23T04:03:27.963Z,0.00
2018-01-23T04:04:27.955Z,0.00
2018-01-23T04:05:27.936Z,0.00
2018-01-23T04:06:27.922Z,0.00
2018-01-23T04:07:27.909Z,0.00
2018-01-23T04:08:27.889Z,0.00
2018-01-23T04:09:27.878Z,0.00
2018-01-23T04:10:27.864Z,0.00
2018-01-23T04:11:27.848Z,0.00
2018-01-23T04:12:27.835Z,0.00
2018-01-23T04:13:27.821Z,0.00
2018-01-23T04:14:27.806Z,0.00
2018-01-23T04:15:27.792Z,0.00
2018-01-23T04:16:27.777Z,0.00
2018-01-23T04:17:27.761Z,0.00
2018-01-23T04:18:27.747Z,0.00
2018-01-23T04:19:27.731Z,0.00
2018-01-23T04:20:27.720Z,0.00
2018-01-23T04:21:27.712Z,0.00
2018-01-23T04:22:27.690Z,0.00
2018-01-23T04:23:27.680Z,0.00
2018-01-23T04:24:27.661Z,0.00
2018-01-23T04:25:27.649Z,0.00
2018-01-23T04:26:27.635Z,0.00
2018-01-23T04:27:27.666Z,0.00
2018-01-23T04:28:27.604Z,0.00
2018-01-23T04:29:27.591Z,0.00
2018-01-23T04:30:27.611Z,0.00
2018-01-23T04:31:27.562Z,0.00
2018-01-23T04:32:27.546Z,0.00
2018-01-23T04:33:27.534Z,0.00
2018-01-23T04:34:27.513Z,0.00
2018-01-23T04:35:27.503Z,0.00
2018-01-23T04:36:27.485Z,0.00
2018-01-23T04:37:27.474Z,0.00
2018-01-23T04:38:27.461Z,0.00
2018-01-23T04:39:27.445Z,0.00
2018-01-23T04:40:27.432Z,0.00
2018-01-23T04:41:27.418Z,0.00
2018-01-23T04:42:27.402Z,0.00
2018-01-23T04:43:27.391Z,0.00
2018-01-23T04:44:27.374Z,0.00
2018-01-23T04:45:27.363Z,0.00
2018-01-23T04:46:27.346Z,0.00
2018-01-23T04:47:27.347Z,0.00
2018-01-23T04:48:27.317Z,0.00
2018-01-23T04:49:27.298Z,0.00
2018-01-23T04:50:27.290Z,0.00
2018-01-23T04:51:27.275Z,0.00
2018-01-23T04:52:27.259Z,0.00
2018-01-23T04:53:27.245Z,0.00
2018-01-23T04:54:27.228Z,0.00
2018-01-23T04:55:27.216Z,0.00
2018-01-23T04:56:27.201Z,0.00
2018-01-23T04:57:27.187Z,0.00
2018-01-23T04:58:27.176Z,0.00
2018-01-23T04:59:27.162Z,0.00
2018-01-23T05:00:27.146Z,0.00
2018-01-23T05:01:27.133Z,0.00
2018-01-23T05:02:27.120Z,0.00
2018-01-23T05:03:27.100Z,0.00
2018-01-23T05:04:27.090Z,0.00
2018-01-23T05:05:27.070Z,0.00
2018-01-23T05:06:27.061Z,0.00
2018-01-23T05:07:27.048Z,0.00
2018-01-23T05:08:27.032Z,0.00
2018-01-23T05:09:27.017Z,0.00
2018-01-23T05:10:27.001Z,0.00
2018-01-23T05:11:26.987Z,0.00
2018-01-23T05:12:26.972Z,0.00
2018-01-23T05:13:26.960Z,0.00
2018-01-23T05:14:26.949Z,0.00
2018-01-23T05:15:26.929Z,0.00
2018-01-23T05:16:26.919Z,0.00
2018-01-23T05:17:26.896Z,0.00
2018-01-23T05:18:26.884Z,0.00
2018-01-23T05:19:26.873Z,0.00
2018-01-23T05:20:26.863Z,0.00
2018-01-23T05:21:26.842Z,0.00
2018-01-23T05:22:26.826Z,0.00
2018-01-23T05:23:26.815Z,0.00
2018-01-23T05:24:26.799Z,0.00
2018-01-23T05:25:26.786Z,0.00
2018-01-23T05:26:26.772Z,0.00
2018-01-23T05:27:26.756Z,0.00
2018-01-23T05:28:26.749Z,0.00
2018-01-23T05:29:26.723Z,0.00
2018-01-23T05:30:26.716Z,0.00
2018-01-23T05:31:26.702Z,0.00
2018-01-23T05:32:26.685Z,0.00
2018-01-23T05:33:26.668Z,0.00
2018-01-23T05:34:26.655Z,0.00
2018-01-23T05:35:26.643Z,0.00
2018-01-23T05:36:26.629Z,0.00
2018-01-23T05:37:26.609Z,0.00
2018-01-23T05:38:26.601Z,0.00
2018-01-23T05:39:26.584Z,0.00
2018-01-23T05:40:26.572Z,0.00
2018-01-23T05:41:26.553Z,0.00
2018-01-23T05:42:26.541Z,0.00
2018-01-23T05:43:26.529Z,0.00
2018-01-23T05:44:26.512Z,0.00
2018-01-23T05:45:26.501Z,0.00
2018-01-23T05:46:26.482Z,0.00
2018-01-23T05:47:26.473Z,0.00
2018-01-23T05:48:26.452Z,0.00
2018-01-23T05:49:26.442Z,0.00
2018-01-23T05:50:26.428Z,0.00
2018-01-23T05:51:26.411Z,0.00
2018-01-23T05:52:26.406Z,0.00
2018-01-23T05:53:26.384Z,0.00
2018-01-23T05:54:26.377Z,0.00
2018-01-23T05:55:26.357Z,0.00
2018-01-23T05:56:26.341Z,0.00
2018-01-23T05:57:26.329Z,0.00
2018-01-23T05:58:26.316Z,0.00
2018-01-23T05:59:26.297Z,0.00
2018-01-23T06:00:26.285Z,0.00
2018-01-23T06:01:26.268Z,0.00
2018-01-23T06:02:26.256Z,0.00
2018-01-23T06:03:26.240Z,0.00
2018-01-23T06:04:26.227Z,0.00
2018-01-23T06:05:26.213Z,0.00
2018-01-23T06:06:26.198Z,0.00
2018-01-23T06:07:26.184Z,0.00
2018-01-23T06:08:26.171Z,0.00
2018-01-23T06:09:26.155Z,0.00
2018-01-23T06:10:26.140Z,0.00
2018-01-23T06:11:26.179Z,0.00
2018-01-23T06:12:26.113Z,0.00
2018-01-23T06:13:26.099Z,0.00
2018-01-23T06:14:26.087Z,0.00
2018-01-23T06:15:26.069Z,0.00
2018-01-23T06:16:26.056Z,0.00
2018-01-23T06:17:26.041Z,0.00
2018-01-23T06:18:26.031Z,0.00
2018-01-23T06:19:26.010Z,0.00
2018-01-23T06:20:25.996Z,0.00
2018-01-23T06:21:25.986Z,0.00
2018-01-23T06:22:25.971Z,0.00
2018-01-23T06:23:25.955Z,0.00
2018-01-23T06:24:25.939Z,0.00
2018-01-23T06:25:25.925Z,0.00
2018-01-23T06:26:25.911Z,0.00
2018-01-23T06:27:25.898Z,0.00
2018-01-23T06:28:25.883Z,0.00
2018-01-23T06:29:25.869Z,0.00
2018-01-23T06:30:25.857Z,0.00
2018-01-23T06:31:25.843Z,0.00
2018-01-23T06:32:25.892Z,0.00
2018-01-23T06:33:25.812Z,0.00
2018-01-23T06:34:25.798Z,0.00
2018-01-23T06:35:25.787Z,4.00
2018-01-23T06:36:25.769Z,4.00
2018-01-23T06:37:25.758Z,0.00
2018-01-23T06:38:25.744Z,4.00
2018-01-23T06:39:25.729Z,4.00
2018-01-23T06:40:25.709Z,4.00
2018-01-23T06:41:25.697Z,8.00
2018-01-23T06:42:25.684Z,4.00
2018-01-23T06:43:25.670Z,8.00
2018-01-23T06:44:25.657Z,8.00
2018-01-23T06:45:25.639Z,8.00
2018-01-23T06:46:25.628Z,12.00
2018-01-23T06:47:25.612Z,12.00
2018-01-23T06:48:25.596Z,12.00
2018-01-23T06:49:25.591Z,16.00
2018-01-23T06:50:25.567Z,20.00
2018-01-23T06:51:25.555Z,24.00
2018-01-23T06:52:25.540Z,24.00
2018-01-23T06:53:25.524Z,28.00
2018-01-23T06:54:25.517Z,32.00
2018-01-23T06:55:25.497Z,32.00
2018-01-23T06:56:25.480Z,36.00
2018-01-23T06:57:25.467Z,40.00
2018-01-23T06:58:25.455Z,44.00
2018-01-23T06:59:25.440Z,52.00
2018-01-23T07:00:25.424Z,52.00
2018-01-23T07:01:25.410Z,52.00
2018-01-23T07:02:25.403Z,60.00
2018-01-23T07:03:25.379Z,60.00
2018-01-23T07:04:25.367Z,64.00
2018-01-23T07:05:25.355Z,68.00
2018-01-23T07:06:25.338Z,76.00
2018-01-23T07:07:25.316Z,76.00
2018-01-23T07:08:25.316Z,80.00
2018-01-23T07:09:25.293Z,80.00
2018-01-23T07:10:25.280Z,80.00
2018-01-23T07:11:25.266Z,88.00
2018-01-23T07:12:25.246Z,92.00
2018-01-23T07:13:25.242Z,100.00
2018-01-23T07:14:25.224Z,108.00
2018-01-23T07:15:25.207Z,112.00
2018-01-23T07:16:25.197Z,116.00
2018-01-23T07:17:25.177Z,124.00
2018-01-23T07:18:25.174Z,132.00
2018-01-23T07:19:25.150Z,140.00
2018-01-23T07:20:25.138Z,148.00
2018-01-23T07:21:25.115Z,144.00
2018-01-23T07:22:25.103Z,144.00
2018-01-23T07:23:25.094Z,140.00
2018-01-23T07:24:25.079Z,144.00
2018-01-23T07:25:25.065Z,152.00
2018-01-23T07:26:25.046Z,164.00
2018-01-23T07:27:25.034Z,172.00
2018-01-23T07:28:25.018Z,176.00
2018-01-23T07:29:25.007Z,180.00
2018-01-23T07:30:24.996Z,188.00
2018-01-23T07:31:24.976Z,200.00
2018-01-23T07:32:24.962Z,208.00
2018-01-23T07:33:24.948Z,220.00
2018-01-23T07:34:24.956Z,236.00
2018-01-23T07:35:24.924Z,244.00
2018-01-23T07:36:24.904Z,236.00
2018-01-23T07:37:24.894Z,224.00
2018-01-23T07:38:24.877Z,220.00
2018-01-23T07:39:24.865Z,220.00
2018-01-23T07:40:24.847Z,224.00
2018-01-23T07:41:24.833Z,232.00
2018-01-23T07:42:24.828Z,228.00
2018-01-23T07:43:24.806Z,212.00
2018-01-23T07:44:24.792Z,204.00
2018-01-23T07:45:24.774Z,200.00
2018-01-23T07:46:24.770Z,208.00
2018-01-23T07:47:24.750Z,228.00
2018-01-23T07:48:24.735Z,256.00
2018-01-23T07:49:24.722Z,288.00
2018-01-23T07:50:24.702Z,308.00
2018-01-23T07:51:24.689Z,316.00
2018-01-23T07:52:24.673Z,316.00
2018-01-23T07:53:24.661Z,324.00
2018-01-23T07:54:24.648Z,332.00
2018-01-23T07:55:24.632Z,332.00
2018-01-23T07:56:24.622Z,300.00
2018-01-23T07:57:24.604Z,268.00
2018-01-23T07:58:24.592Z,256.00
2018-01-23T07:59:24.576Z,272.00
2018-01-23T08:00:24.560Z,276.00
2018-01-23T08:01:24.547Z,280.00
2018-01-23T08:02:24.535Z,284.00
2018-01-23T08:03:24.523Z,288.00
2018-01-23T08:04:24.502Z,284.00
2018-01-23T08:05:24.486Z,284.00
2018-01-23T08:06:24.498Z,276.00
2018-01-23T08:07:24.463Z,276.00
2018-01-23T08:08:24.446Z,296.00
2018-01-23T08:09:24.435Z,316.00
2018-01-23T08:10:24.413Z,304.00
2018-01-23T08:11:24.399Z,292.00
2018-01-23T08:12:24.390Z,300.00
2018-01-23T08:13:24.374Z,316.00
2018-01-23T08:14:24.356Z,320.00
2018-01-23T08:15:24.345Z,308.00
2018-01-23T08:16:24.334Z,296.00
2018-01-23T08:17:24.314Z,300.00
2018-01-23T08:18:24.303Z,316.00
2018-01-23T08:19:24.289Z,352.00
2018-01-23T08:20:24.275Z,380.00
2018-01-23T08:21:24.260Z,392.00
2018-01-23T08:22:24.247Z,388.00
2018-01-23T08:23:24.235Z,380.00
2018-01-23T08:24:24.217Z,384.00
2018-01-23T08:25:24.202Z,432.00
2018-01-23T08:26:24.190Z,492.00
2018-01-23T08:27:24.174Z,528.00
2018-01-23T08:28:24.159Z,536.00
2018-01-23T08:29:24.146Z,532.00
2018-01-23T08:30:24.130Z,532.00
2018-01-23T08:31:24.114Z,536.00
2018-01-23T08:32:24.098Z,552.00
2018-01-23T08:33:24.083Z,592.00
2018-01-23T08:34:24.071Z,656.00
2018-01-23T08:35:24.060Z,688.00
2018-01-23T08:36:24.043Z,676.00
2018-01-23T08:37:24.032Z,636.00
2018-01-23T08:38:24.013Z,596.00
2018-01-23T08:39:24.002Z,572.00
2018-01-23T08:40:23.984Z,584.00
2018-01-23T08:41:23.966Z,600.00
2018-01-23T08:42:23.959Z,596.00
2018-01-23T08:43:23.941Z,620.00
2018-01-23T08:44:23.930Z,664.00
2018-01-23T08:45:23.914Z,684.00
2018-01-23T08:46:23.903Z,692.00
2018-01-23T08:47:23.886Z,652.00
2018-01-23T08:48:23.874Z,628.00
2018-01-23T08:49:23.856Z,612.00
2018-01-23T08:50:23.863Z,604.00
2018-01-23T08:51:23.824Z,620.00
2018-01-23T08:52:23.809Z,664.00
2018-01-23T08:53:23.796Z,724.00
2018-01-23T08:54:23.784Z,780.00
2018-01-23T08:55:23.773Z,796.00
2018-01-23T08:56:23.755Z,812.00
2018-01-23T08:57:23.742Z,852.00
2018-01-23T08:58:23.728Z,952.00
2018-01-23T08:59:23.714Z,1204.00
2018-01-23T09:00:23.701Z,1376.00
2018-01-23T09:01:23.684Z,1456.00
2018-01-23T09:02:23.685Z,1532.00
2018-01-23T09:03:23.656Z,1488.00
2018-01-23T09:04:23.644Z,1488.00
2018-01-23T09:05:23.684Z,1704.00
2018-01-23T09:06:23.617Z,1924.00
2018-01-23T09:07:23.600Z,1956.00
2018-01-23T09:08:23.585Z,1764.00
2018-01-23T09:09:23.569Z,1788.00
2018-01-23T09:10:23.561Z,1848.00
2018-01-23T09:11:23.546Z,1852.00
2018-01-23T09:12:23.530Z,1832.00
2018-01-23T09:13:23.513Z,1868.00
2018-01-23T09:14:23.501Z,1680.00
2018-01-23T09:15:23.488Z,1496.00
2018-01-23T09:16:23.470Z,1320.00
2018-01-23T09:17:23.462Z,1172.00
2018-01-23T09:18:23.447Z,1248.00
2018-01-23T09:19:23.433Z,1428.00
2018-01-23T09:20:23.412Z,1868.00
2018-01-23T09:21:23.404Z,2136.00
2018-01-23T09:22:23.387Z,1700.00
2018-01-23T09:23:23.378Z,1376.00
2018-01-23T09:24:23.361Z,1392.00
2018-01-23T09:25:23.348Z,1576.00
2018-01-23T09:26:23.337Z,1692.00
2018-01-23T09:27:23.323Z,1648.00
2018-01-23T09:28:23.305Z,1448.00
2018-01-23T09:29:23.294Z,1288.00
2018-01-23T09:30:23.280Z,1236.00
2018-01-23T09:31:23.265Z,1228.00
2018-01-23T09:32:23.250Z,1324.00
2018-01-23T09:33:23.238Z,1440.00
2018-01-23T09:34:23.222Z,1524.00
2018-01-23T09:35:23.214Z,1600.00
2018-01-23T09:36:23.195Z,1704.00
2018-01-23T09:37:23.189Z,1856.00
2018-01-23T09:38:23.170Z,2020.00
2018-01-23T09:39:23.158Z,2112.00
2018-01-23T09:40:23.144Z,2048.00
2018-01-23T09:41:23.127Z,1924.00
2018-01-23T09:42:23.120Z,1744.00
2018-01-23T09:43:23.100Z,1612.00
2018-01-23T09:44:23.087Z,1532.00
2018-01-23T09:45:23.075Z,1484.00
2018-01-23T09:46:23.083Z,1552.00
2018-01-23T09:47:23.053Z,1704.00
2018-01-23T09:48:23.046Z,1876.00
2018-01-23T09:49:23.021Z,2000.00
2018-01-23T09:50:23.005Z,2096.00
2018-01-23T09:51:22.994Z,2024.00
2018-01-23T09:52:22.984Z,1824.00
2018-01-23T09:53:22.969Z,1620.00
2018-01-23T09:54:22.959Z,1560.00
2018-01-23T09:55:22.939Z,1572.00
2018-01-23T09:56:22.926Z,1576.00
2018-01-23T09:57:22.916Z,1560.00
2018-01-23T09:58:22.902Z,1540.00
2018-01-23T09:59:22.885Z,1436.00
2018-01-23T10:00:22.873Z,1372.00
2018-01-23T10:01:22.856Z,1364.00
2018-01-23T10:02:22.851Z,1388.00
2018-01-23T10:03:22.835Z,1468.00
2018-01-23T10:04:22.817Z,1612.00
2018-01-23T10:05:22.808Z,1828.00
2018-01-23T10:06:22.791Z,1912.00
2018-01-23T10:07:22.783Z,1848.00
2018-01-23T10:08:22.767Z,1848.00
2018-01-23T10:09:22.755Z,1964.00
2018-01-23T10:10:22.738Z,2304.00
2018-01-23T10:11:22.723Z,2992.00
2018-01-23T10:12:22.713Z,3376.00
2018-01-23T10:13:22.697Z,3344.00
2018-01-23T10:14:22.688Z,3276.00
2018-01-23T10:15:22.672Z,3008.00
2018-01-23T10:16:22.655Z,2728.00
2018-01-23T10:17:22.645Z,2504.00
2018-01-23T10:18:22.637Z,2364.00
2018-01-23T10:19:22.618Z,2332.00
2018-01-23T10:20:22.606Z,2416.00
2018-01-23T10:21:22.589Z,2740.00
2018-01-23T10:22:22.579Z,3192.00
2018-01-23T10:23:22.568Z,3440.00
2018-01-23T10:24:22.552Z,3444.00
2018-01-23T10:25:22.539Z,4020.00
2018-01-23T10:26:22.523Z,4352.00
2018-01-23T10:27:22.513Z,4176.00
2018-01-23T10:28:22.501Z,3080.00
2018-01-23T10:29:22.499Z,2788.00
2018-01-23T10:30:22.473Z,2752.00
2018-01-23T10:31:22.460Z,2736.00
2018-01-23T10:32:22.450Z,2908.00
2018-01-23T10:33:22.438Z,2852.00
2018-01-23T10:34:22.422Z,2744.00
2018-01-23T10:35:22.411Z,2964.00
2018-01-23T10:36:22.398Z,4332.00
2018-01-23T10:37:22.389Z,4960.00
2018-01-23T10:38:22.372Z,4936.00
2018-01-23T10:39:22.358Z,5540.00
2018-01-23T10:40:22.348Z,5512.00
2018-01-23T10:41:22.334Z,5548.00
2018-01-23T10:42:22.324Z,5572.00
2018-01-23T10:43:22.309Z,5548.00
2018-01-23T10:44:22.293Z,5552.00
2018-01-23T10:45:22.290Z,5552.00
2018-01-23T10:46:22.274Z,5564.00
2018-01-23T10:47:22.261Z,5600.00
2018-01-23T10:48:22.249Z,5612.00
2018-01-23T10:49:22.239Z,5652.00
2018-01-23T10:50:22.226Z,5668.00
2018-01-23T10:51:22.210Z,5676.00
2018-01-23T10:52:22.197Z,5692.00
2018-01-23T10:53:22.185Z,5712.00
2018-01-23T10:54:22.176Z,5772.00
2018-01-23T10:55:22.162Z,5812.00
2018-01-23T10:56:22.150Z,5804.00
2018-01-23T10:57:22.140Z,5836.00
2018-01-23T10:58:22.131Z,5992.00
2018-01-23T10:59:22.121Z,4032.00
2018-01-23T11:00:22.111Z,3948.00
2018-01-23T11:01:22.096Z,3268.00
2018-01-23T11:02:22.086Z,2448.00
2018-01-23T11:03:22.069Z,2256.00
2018-01-23T11:04:22.058Z,2232.00
2018-01-23T11:05:22.046Z,2384.00
2018-01-23T11:06:22.043Z,2648.00
2018-01-23T11:07:22.047Z,3080.00
2018-01-23T11:08:22.018Z,3052.00
2018-01-23T11:09:22.004Z,2740.00
2018-01-23T11:10:21.995Z,2584.00
2018-01-23T11:11:21.981Z,2636.00
2018-01-23T11:12:21.967Z,2864.00
2018-01-23T11:13:21.956Z,3076.00
2018-01-23T11:14:21.940Z,3052.00
2018-01-23T11:15:21.933Z,2884.00
2018-01-23T11:16:21.924Z,2724.00
2018-01-23T11:17:21.911Z,2652.00
2018-01-23T11:18:21.900Z,2728.00
2018-01-23T11:19:21.889Z,2824.00
2018-01-23T11:20:21.873Z,2728.00
2018-01-23T11:21:21.869Z,2652.00
2018-01-23T11:22:21.852Z,2624.00
2018-01-23T11:23:21.843Z,2724.00
2018-01-23T11:24:21.827Z,2748.00
2018-01-23T11:25:21.813Z,2716.00
2018-01-23T11:26:21.812Z,2736.00
2018-01-23T11:27:21.792Z,2728.00
2018-01-23T11:28:21.778Z,2748.00
2018-01-23T11:29:21.769Z,2700.00
2018-01-23T11:30:21.753Z,2584.00
2018-01-23T11:31:21.744Z,2552.00
2018-01-23T11:32:21.732Z,2560.00
2018-01-23T11:33:21.713Z,2488.00
2018-01-23T11:34:21.717Z,2436.00
2018-01-23T11:35:21.699Z,2368.00
2018-01-23T11:36:21.682Z,2372.00
2018-01-23T11:37:21.674Z,2412.00
2018-01-23T11:38:21.659Z,2408.00
2018-01-23T11:39:21.647Z,2400.00
2018-01-23T11:40:21.632Z,2384.00
2018-01-23T11:41:21.621Z,2344.00
2018-01-23T11:42:21.609Z,2376.00
2018-01-23T11:43:21.597Z,2396.00
2018-01-23T11:44:21.583Z,2492.00
2018-01-23T11:45:21.572Z,2576.00
2018-01-23T11:46:21.561Z,2552.00
2018-01-23T11:47:21.547Z,2500.00
2018-01-23T11:48:21.535Z,2548.00
2018-01-23T11:49:21.523Z,2656.00
2018-01-23T11:50:21.514Z,2764.00
2018-01-23T11:51:21.507Z,2888.00
2018-01-23T11:52:21.495Z,2920.00
2018-01-23T11:53:21.480Z,2872.00
2018-01-23T11:54:21.460Z,2824.00
2018-01-23T11:55:21.453Z,2820.00
2018-01-23T11:56:21.437Z,2800.00
2018-01-23T11:57:21.425Z,2832.00
2018-01-23T11:58:21.414Z,2892.00
2018-01-23T11:59:21.402Z,2848.00
2018-01-23T12:00:21.391Z,2852.00
2018-01-23T12:01:21.377Z,2748.00
2018-01-23T12:02:21.360Z,2636.00
2018-01-23T12:03:21.352Z,2524.00
2018-01-23T12:04:21.338Z,2548.00
2018-01-23T12:05:21.329Z,2456.00
2018-01-23T12:06:21.313Z,2472.00
2018-01-23T12:07:21.302Z,2492.00
2018-01-23T12:08:21.286Z,2492.00
2018-01-23T12:09:21.279Z,2420.00
2018-01-23T12:10:21.265Z,2360.00
2018-01-23T12:11:21.256Z,2284.00
2018-01-23T12:12:21.246Z,2240.00
2018-01-23T12:13:21.227Z,2176.00
2018-01-23T12:14:21.220Z,2080.00
2018-01-23T12:15:21.201Z,2000.00
2018-01-23T12:16:21.190Z,1996.00
2018-01-23T12:17:21.176Z,2068.00
2018-01-23T12:18:21.162Z,2096.00
2018-01-23T12:19:21.153Z,2056.00
2018-01-23T12:20:21.139Z,1960.00
2018-01-23T12:21:21.128Z,1824.00
2018-01-23T12:22:21.111Z,1788.00
2018-01-23T12:23:21.099Z,1800.00
2018-01-23T12:24:21.091Z,1800.00
2018-01-23T12:25:21.081Z,1800.00
2018-01-23T12:26:21.066Z,1772.00
2018-01-23T12:27:21.051Z,1716.00
2018-01-23T12:28:21.037Z,1716.00
2018-01-23T12:29:21.025Z,1796.00
2018-01-23T12:30:21.011Z,1904.00
2018-01-23T12:31:21.000Z,1984.00
2018-01-23T12:32:20.987Z,1940.00
2018-01-23T12:33:20.975Z,1836.00
2018-01-23T12:34:20.964Z,1824.00
2018-01-23T12:35:20.948Z,1948.00
2018-01-23T12:36:20.934Z,2196.00
2018-01-23T12:37:20.919Z,2364.00
2018-01-23T12:38:20.910Z,2376.00
2018-01-23T12:39:20.898Z,2292.00
2018-01-23T12:40:20.882Z,2208.00
2018-01-23T12:41:20.885Z,2212.00
2018-01-23T12:42:20.861Z,2436.00
2018-01-23T12:43:20.848Z,2692.00
2018-01-23T12:44:20.834Z,2612.00
2018-01-23T12:45:20.822Z,2284.00
2018-01-23T12:46:20.803Z,1964.00
2018-01-23T12:47:20.794Z,1868.00